createdAt,value
2018-04-10T00:02:35.301Z,3.02
2018-04-10T00:08:26.147Z,3.36
2018-04-10T00:14:17.039Z,3.12
2018-04-10T00:20:07.930Z,3.74
2018-04-10T00:25:58.748Z,3.96
2018-04-10T00:31:49.613Z,3.78
2018-04-10T00:37:40.524Z,4.7
2018-04-10T00:43:31.382Z,4.31
2018-04-10T00:49:22.207Z,4.03
2018-04-10T00:55:13.164Z,3.97
2018-04-10T01:01:03.949Z,4.07
2018-04-10T01:06:54.895Z,4.33
2018-04-10T01:12:45.695Z,4.22
2018-04-10T01:18:36.573Z,4.51
2018-04-10T01:24:27.487Z,4.51
2018-04-10T01:30:18.325Z,4.21
2018-04-10T01:36:09.164Z,4.14
2018-04-10T01:42:00.025Z,4.43
2018-04-10T01:47:50.889Z,3.95
2018-04-10T01:53:41.765Z,4.2
2018-04-10T01:59:32.641Z,4.07
2018-04-10T02:05:23.536Z,3.16
2018-04-10T02:17:05.237Z,4.08
2018-04-10T02:22:56.099Z,3.62
2018-04-10T02:28:47.012Z,3.31
2018-04-10T02:34:37.815Z,3.38
2018-04-10T02:40:28.695Z,3.4
2018-04-10T02:46:19.564Z,3.75
2018-04-10T02:52:10.416Z,3.78
2018-04-10T02:58:01.282Z,3.35
2018-04-10T03:03:52.252Z,3.74
2018-04-10T03:09:43.026Z,4.22
2018-04-10T03:15:33.919Z,3.76
2018-04-10T03:21:24.786Z,4.12
2018-04-10T03:27:15.647Z,3.68
2018-04-10T03:33:06.513Z,4.47
2018-04-10T03:38:57.394Z,4.69
2018-04-10T03:44:48.228Z,4.46
2018-04-10T03:50:39.098Z,4.47
2018-04-10T03:56:29.970Z,3.87
2018-04-10T04:02:20.818Z,4.34
2018-04-10T04:08:11.692Z,4.94
2018-04-10T04:14:02.561Z,4.26
2018-04-10T04:19:53.470Z,3.76
2018-04-10T04:25:44.283Z,3.99
2018-04-10T04:31:35.235Z,4.19
2018-04-10T04:37:26.085Z,4.61
2018-04-10T04:43:16.904Z,4.46
2018-04-10T04:49:07.774Z,4.57
2018-04-10T04:54:58.590Z,4.44
2018-04-10T05:00:49.488Z,3.74
2018-04-10T05:06:40.334Z,4.75
2018-04-10T05:12:31.200Z,5.28
2018-04-10T05:18:22.046Z,5.85
2018-04-10T05:24:13.027Z,3.28
2018-04-10T05:30:03.794Z,3.31
2018-04-10T05:35:54.692Z,2.88
2018-04-10T05:41:45.549Z,3.48
2018-04-10T05:47:36.374Z,3.9
2018-04-10T05:53:27.239Z,4.7
2018-04-10T05:59:18.169Z,4.51
2018-04-10T06:05:08.998Z,3.51
2018-04-10T06:10:59.882Z,1.01
2018-04-10T06:16:50.774Z,3.96
2018-04-10T06:22:41.580Z,3.46
2018-04-10T06:28:32.432Z,3.42
2018-04-10T06:34:23.345Z,4.07
2018-04-10T06:40:14.275Z,3.92
2018-04-10T06:46:05.049Z,3.51
2018-04-10T06:51:55.931Z,18.67
2018-04-10T06:57:46.824Z,25.35
2018-04-10T07:03:37.646Z,22.9
2018-04-10T07:09:28.499Z,22.51
2018-04-10T07:15:19.435Z,22.53
2018-04-10T07:21:10.299Z,28.84
2018-04-10T07:27:01.167Z,30.06
2018-04-10T07:32:52.034Z,33.68
2018-04-10T07:38:42.892Z,34.8
2018-04-10T07:44:33.737Z,34.49
2018-04-10T07:50:24.627Z,36.88
2018-04-10T07:56:15.521Z,35.42
2018-04-10T08:02:06.401Z,45.24
2018-04-10T08:07:57.210Z,29.83
2018-04-10T08:13:48.087Z,23.7
2018-04-10T08:19:38.993Z,16.47
2018-04-10T08:25:29.827Z,17.52
2018-04-10T08:31:20.719Z,15.03
2018-04-10T08:37:11.574Z,16.73
2018-04-10T08:43:02.536Z,15.1
2018-04-10T08:48:53.325Z,18.01
2018-04-10T08:54:44.270Z,16.91
2018-04-10T09:00:35.087Z,15.51
2018-04-10T09:06:25.973Z,19.01
2018-04-10T09:12:16.826Z,15.04
2018-04-10T09:18:07.734Z,11.85
2018-04-10T09:23:58.576Z,13.05
2018-04-10T09:29:49.504Z,12.65
2018-04-10T09:35:40.357Z,15.88
2018-04-10T09:41:31.277Z,15.17
2018-04-10T09:47:22.160Z,9.77
2018-04-10T09:53:13.038Z,10.68
2018-04-10T10:04:54.767Z,10.88
2018-04-10T10:10:45.665Z,8.76
2018-04-10T10:16:36.574Z,10
2018-04-10T10:22:27.399Z,7.71
2018-04-10T10:28:18.327Z,9.54
2018-04-10T10:34:09.162Z,9.02
2018-04-10T10:40:00.048Z,11.29
2018-04-10T10:45:50.961Z,7.04
2018-04-10T10:51:41.801Z,15.29
2018-04-10T10:57:32.662Z,5.86
2018-04-10T11:03:23.586Z,5.79
2018-04-10T11:09:14.464Z,11.78
2018-04-10T11:15:05.347Z,11.12
2018-04-10T11:20:56.198Z,12.48
2018-04-10T11:26:47.072Z,14.2
2018-04-10T11:32:37.970Z,13.97
2018-04-10T11:38:28.873Z,11.09
2018-04-10T11:44:19.734Z,10.26
2018-04-10T11:50:10.589Z,9.66
2018-04-10T11:56:01.442Z,9.32
2018-04-10T12:01:52.370Z,11.02
2018-04-10T12:07:43.218Z,11.71
2018-04-10T12:13:34.140Z,13.56
2018-04-10T12:19:24.953Z,24.86
2018-04-10T12:25:15.846Z,26.36
2018-04-10T12:31:06.726Z,29.47
2018-04-10T12:36:57.588Z,34.05
2018-04-10T12:42:48.487Z,21.07
2018-04-10T12:48:39.344Z,17.91
2018-04-10T12:54:30.267Z,13.88
2018-04-10T13:00:21.125Z,14.43
2018-04-10T13:06:12.032Z,25.48
2018-04-10T13:12:02.860Z,16.65
2018-04-10T13:17:53.753Z,23.02
2018-04-10T13:23:44.636Z,49.39
2018-04-10T13:29:35.485Z,70.08
2018-04-10T13:35:26.438Z,64.52
2018-04-10T13:41:17.301Z,46.39
2018-04-10T13:47:08.112Z,43.31
2018-04-10T13:52:59.010Z,46.22
2018-04-10T13:58:49.863Z,38.76
2018-04-10T14:04:40.741Z,37.67
2018-04-10T14:10:31.610Z,31.11
2018-04-10T14:16:22.511Z,25.53
2018-04-10T14:22:13.397Z,23.19
2018-04-10T14:28:04.263Z,17.45
2018-04-10T14:33:55.143Z,16.68
2018-04-10T14:39:46.027Z,13.66
2018-04-10T14:45:36.893Z,17.15
2018-04-10T14:51:27.789Z,13.41
2018-04-10T14:57:18.714Z,12.27
2018-04-10T15:03:09.480Z,11.9
2018-04-10T15:09:00.533Z,13.71
2018-04-10T15:14:51.405Z,10.9
2018-04-10T15:20:42.251Z,10.7
2018-04-10T15:26:33.175Z,8.51
2018-04-10T15:32:24.052Z,7.24
2018-04-10T15:38:14.870Z,6
2018-04-10T15:44:05.757Z,4.16
2018-04-10T15:49:56.611Z,3.7
2018-04-10T15:55:47.498Z,3.08
2018-04-10T16:01:38.365Z,2.43
2018-04-10T16:07:29.223Z,2.87
2018-04-10T16:13:20.135Z,2.49
2018-04-10T16:19:10.945Z,3.53
2018-04-10T16:25:01.840Z,4.56
2018-04-10T16:30:52.770Z,6.44
2018-04-10T16:36:43.754Z,10.85
2018-04-10T16:42:34.462Z,9.69
2018-04-10T16:48:25.300Z,6.28
2018-04-10T16:54:16.214Z,5.54
2018-04-10T17:00:07.068Z,4.99
2018-04-10T17:05:57.966Z,3.55
2018-04-10T17:11:48.767Z,3.19
2018-04-10T17:17:39.646Z,3.04
2018-04-10T17:23:30.491Z,2.75
2018-04-10T17:29:21.388Z,2.67
2018-04-10T17:35:12.264Z,2.47
2018-04-10T17:41:03.092Z,2.44
2018-04-10T17:46:53.965Z,6.67
2018-04-10T17:52:44.897Z,5.46
2018-04-10T17:58:35.721Z,6.38
2018-04-10T18:04:26.561Z,6.31
2018-04-10T18:10:17.477Z,5.89
2018-04-10T18:16:08.323Z,5.59
2018-04-10T18:21:59.185Z,5.33
2018-04-10T18:27:50.035Z,4.81
2018-04-10T18:33:40.895Z,6.26
2018-04-10T18:39:31.724Z,4.46
2018-04-10T18:45:22.640Z,4.8
2018-04-10T18:51:13.492Z,4.79
2018-04-10T18:57:04.422Z,4.45
2018-04-10T19:02:55.222Z,4.51
2018-04-10T19:08:46.068Z,5.04
2018-04-10T19:14:36.986Z,5.37
2018-04-10T19:20:27.856Z,5.89
2018-04-10T19:26:18.727Z,5.25
2018-04-10T19:32:09.513Z,4.47
2018-04-10T19:38:00.402Z,4.79
2018-04-10T19:43:51.272Z,5.04
2018-04-10T19:49:42.159Z,4.71
2018-04-10T19:55:33.357Z,5.85
2018-04-10T20:01:23.873Z,6.17
2018-04-10T20:07:14.729Z,4.95
2018-04-10T20:13:05.636Z,5.28
2018-04-10T20:18:56.536Z,5.51
2018-04-10T20:24:47.320Z,4.8
2018-04-10T20:30:38.202Z,5.74
2018-04-10T20:36:29.031Z,6.06
2018-04-10T20:42:19.952Z,6.44
2018-04-10T20:48:10.896Z,7.18
2018-04-10T20:54:01.644Z,6.73
2018-04-10T20:59:52.521Z,6.2
2018-04-10T21:05:43.364Z,6.15
2018-04-10T21:11:34.204Z,6.32
2018-04-10T21:17:25.068Z,6.19
2018-04-10T21:23:15.923Z,6.42
2018-04-10T21:29:06.847Z,6.5
2018-04-10T21:34:57.705Z,6.19
2018-04-10T21:40:48.532Z,6.59
2018-04-10T21:46:39.433Z,6.48
2018-04-10T21:52:30.294Z,6.84
2018-04-10T21:58:21.127Z,7.05
2018-04-10T22:04:11.992Z,6.44
2018-04-10T22:10:02.887Z,7.14
2018-04-10T22:15:53.703Z,7.19
2018-04-10T22:21:44.664Z,6.53
2018-04-10T22:27:35.474Z,6.26
2018-04-10T22:33:26.296Z,5.26
2018-04-10T22:39:17.142Z,5.1
2018-04-10T22:45:08.009Z,4.01
2018-04-10T22:50:58.899Z,3.28
2018-04-10T22:56:49.703Z,3.41
2018-04-10T23:02:40.659Z,3.7
2018-04-10T23:08:31.449Z,4.08
2018-04-10T23:14:22.328Z,4.21
2018-04-10T23:20:13.218Z,4.08
2018-04-10T23:26:04.075Z,4.2
2018-04-10T23:31:54.982Z,4.07
2018-04-10T23:37:45.835Z,3.88
2018-04-10T23:43:36.770Z,3.61
2018-04-10T23:49:27.625Z,3.27
2018-04-10T23:55:18.406Z,3.19
